sensor_id;sensor_type;location;lat;lon;timestamp;P1;durP1;ratioP1;P2;durP2;ratioP2
1837;SDS011;918;50.796;6.772;2023-12-20T00:01:16;6.77;;;6.03;;
1837;SDS011;918;50.796;6.772;2023-12-20T00:03:41;6.80;;;5.80;;
1837;SDS011;918;50.796;6.772;2023-12-20T00:06:07;5.23;;;4.63;;
1837;SDS011;918;50.796;6.772;2023-12-20T00:08:32;10.93;;;7.70;;
1837;SDS011;918;50.796;6.772;2023-12-20T00:10:57;7.10;;;6.40;;
1837;SDS011;918;50.796;6.772;2023-12-20T00:13:23;7.83;;;6.40;;
1837;SDS011;918;50.796;6.772;2023-12-20T00:15:48;7.60;;;6.80;;
1837;SDS011;918;50.796;6.772;2023-12-20T00:18:13;8.13;;;7.00;;
1837;SDS011;918;50.796;6.772;2023-12-20T00:20:39;8.90;;;6.50;;
1837;SDS011;918;50.796;6.772;2023-12-20T00:23:04;9.67;;;7.60;;
1837;SDS011;918;50.796;6.772;2023-12-20T00:25:29;7.13;;;6.10;;
1837;SDS011;918;50.796;6.772;2023-12-20T00:27:54;7.70;;;6.03;;
1837;SDS011;918;50.796;6.772;2023-12-20T00:30:19;4.13;;;3.80;;
1837;SDS011;918;50.796;6.772;2023-12-20T00:32:45;4.43;;;4.03;;
1837;SDS011;918;50.796;6.772;2023-12-20T00:35:14;4.00;;;3.70;;
1837;SDS011;918;50.796;6.772;2023-12-20T00:37:40;3.87;;;3.57;;
1837;SDS011;918;50.796;6.772;2023-12-20T00:40:05;3.50;;;3.30;;
1837;SDS011;918;50.796;6.772;2023-12-20T00:42:31;4.03;;;3.60;;
1837;SDS011;918;50.796;6.772;2023-12-20T00:44:58;4.40;;;4.10;;
1837;SDS011;918;50.796;6.772;2023-12-20T00:47:23;5.63;;;5.20;;
1837;SDS011;918;50.796;6.772;2023-12-20T00:49:49;5.57;;;5.17;;
1837;SDS011;918;50.796;6.772;2023-12-20T00:52:14;6.20;;;5.70;;
1837;SDS011;918;50.796;6.772;2023-12-20T00:54:39;7.57;;;6.87;;
1837;SDS011;918;50.796;6.772;2023-12-20T00:57:04;7.23;;;6.63;;
1837;SDS011;918;50.796;6.772;2023-12-20T00:59:30;6.63;;;6.03;;
1837;SDS011;918;50.796;6.772;2023-12-20T01:01:55;8.53;;;7.73;;
1837;SDS011;918;50.796;6.772;2023-12-20T01:04:20;8.63;;;7.80;;
1837;SDS011;918;50.796;6.772;2023-12-20T01:06:46;9.07;;;8.13;;
1837;SDS011;918;50.796;6.772;2023-12-20T01:09:11;11.73;;;9.20;;
1837;SDS011;918;50.796;6.772;2023-12-20T01:11:36;8.63;;;7.83;;
1837;SDS011;918;50.796;6.772;2023-12-20T01:14:02;9.00;;;8.10;;
1837;SDS011;918;50.796;6.772;2023-12-20T01:16:27;10.90;;;9.57;;
1837;SDS011;918;50.796;6.772;2023-12-20T01:18:52;8.43;;;7.63;;
1837;SDS011;918;50.796;6.772;2023-12-20T01:21:17;10.40;;;9.40;;
1837;SDS011;918;50.796;6.772;2023-12-20T01:23:43;11.07;;;9.97;;
1837;SDS011;918;50.796;6.772;2023-12-20T01:26:08;9.77;;;8.77;;
1837;SDS011;918;50.796;6.772;2023-12-20T01:28:34;10.23;;;9.00;;
1837;SDS011;918;50.796;6.772;2023-12-20T01:30:59;11.00;;;9.90;;
1837;SDS011;918;50.796;6.772;2023-12-20T01:33:24;11.50;;;10.33;;
1837;SDS011;918;50.796;6.772;2023-12-20T01:35:49;13.27;;;11.20;;
1837;SDS011;918;50.796;6.772;2023-12-20T01:38:14;12.27;;;10.70;;
1837;SDS011;918;50.796;6.772;2023-12-20T01:40:43;13.93;;;12.20;;
1837;SDS011;918;50.796;6.772;2023-12-20T01:43:08;12.47;;;11.27;;
1837;SDS011;918;50.796;6.772;2023-12-20T01:45:34;13.60;;;12.30;;
1837;SDS011;918;50.796;6.772;2023-12-20T01:48:00;12.50;;;11.30;;
1837;SDS011;918;50.796;6.772;2023-12-20T01:50:27;13.60;;;10.93;;
1837;SDS011;918;50.796;6.772;2023-12-20T01:52:53;10.27;;;8.97;;
1837;SDS011;918;50.796;6.772;2023-12-20T01:55:21;10.63;;;7.10;;
1837;SDS011;918;50.796;6.772;2023-12-20T01:57:46;9.23;;;6.70;;
1837;SDS011;918;50.796;6.772;2023-12-20T02:00:12;7.27;;;5.90;;
1837;SDS011;918;50.796;6.772;2023-12-20T02:02:39;6.37;;;4.50;;
1837;SDS011;918;50.796;6.772;2023-12-20T02:05:06;8.97;;;5.00;;
1837;SDS011;918;50.796;6.772;2023-12-20T02:07:32;10.73;;;5.50;;
1837;SDS011;918;50.796;6.772;2023-12-20T02:09:57;8.60;;;5.27;;
1837;SDS011;918;50.796;6.772;2023-12-20T02:12:23;6.00;;;4.53;;
1837;SDS011;918;50.796;6.772;2023-12-20T02:14:48;6.43;;;3.90;;
1837;SDS011;918;50.796;6.772;2023-12-20T02:17:16;5.17;;;3.70;;
1837;SDS011;918;50.796;6.772;2023-12-20T02:19:41;5.90;;;3.70;;
1837;SDS011;918;50.796;6.772;2023-12-20T02:24:36;8.73;;;3.80;;
1837;SDS011;918;50.796;6.772;2023-12-20T02:27:01;8.40;;;4.37;;
1837;SDS011;918;50.796;6.772;2023-12-20T02:29:26;11.83;;;4.13;;
1837;SDS011;918;50.796;6.772;2023-12-20T02:31:52;3.63;;;3.00;;
1837;SDS011;918;50.796;6.772;2023-12-20T02:34:17;8.97;;;3.83;;
1837;SDS011;918;50.796;6.772;2023-12-20T02:36:42;8.30;;;4.03;;
1837;SDS011;918;50.796;6.772;2023-12-20T02:39:07;5.90;;;2.80;;
1837;SDS011;918;50.796;6.772;2023-12-20T02:41:33;6.40;;;3.43;;
1837;SDS011;918;50.796;6.772;2023-12-20T02:43:58;6.33;;;3.20;;
1837;SDS011;918;50.796;6.772;2023-12-20T02:46:23;10.90;;;4.17;;
1837;SDS011;918;50.796;6.772;2023-12-20T02:48:48;3.70;;;2.73;;
1837;SDS011;918;50.796;6.772;2023-12-20T02:51:14;3.30;;;3.00;;
1837;SDS011;918;50.796;6.772;2023-12-20T02:53:39;4.43;;;3.27;;
1837;SDS011;918;50.796;6.772;2023-12-20T02:56:04;5.57;;;2.80;;
1837;SDS011;918;50.796;6.772;2023-12-20T02:58:30;6.90;;;2.67;;
1837;SDS011;918;50.796;6.772;2023-12-20T03:00:55;9.00;;;2.60;;
1837;SDS011;918;50.796;6.772;2023-12-20T03:03:20;14.03;;;4.17;;
1837;SDS011;918;50.796;6.772;2023-12-20T03:05:46;4.60;;;2.60;;
1837;SDS011;918;50.796;6.772;2023-12-20T03:08:11;6.97;;;3.30;;
1837;SDS011;918;50.796;6.772;2023-12-20T03:10:37;6.70;;;3.53;;
1837;SDS011;918;50.796;6.772;2023-12-20T03:13:02;9.00;;;4.10;;
1837;SDS011;918;50.796;6.772;2023-12-20T03:15:27;8.50;;;4.03;;
1837;SDS011;918;50.796;6.772;2023-12-20T03:17:52;7.43;;;4.30;;
1837;SDS011;918;50.796;6.772;2023-12-20T03:20:18;7.00;;;4.20;;
1837;SDS011;918;50.796;6.772;2023-12-20T03:22:43;7.40;;;4.60;;
1837;SDS011;918;50.796;6.772;2023-12-20T03:25:08;6.57;;;3.93;;
1837;SDS011;918;50.796;6.772;2023-12-20T03:27:33;7.43;;;4.63;;
1837;SDS011;918;50.796;6.772;2023-12-20T03:29:59;10.23;;;4.20;;
1837;SDS011;918;50.796;6.772;2023-12-20T03:32:24;10.10;;;4.73;;
1837;SDS011;918;50.796;6.772;2023-12-20T03:34:49;10.17;;;4.50;;
1837;SDS011;918;50.796;6.772;2023-12-20T03:37:14;10.80;;;5.20;;
1837;SDS011;918;50.796;6.772;2023-12-20T03:39:40;7.10;;;4.57;;
1837;SDS011;918;50.796;6.772;2023-12-20T03:42:05;6.00;;;4.03;;
1837;SDS011;918;50.796;6.772;2023-12-20T03:44:30;7.33;;;4.80;;
1837;SDS011;918;50.796;6.772;2023-12-20T03:46:56;6.43;;;4.00;;
1837;SDS011;918;50.796;6.772;2023-12-20T03:49:21;7.27;;;3.90;;
1837;SDS011;918;50.796;6.772;2023-12-20T03:51:46;10.03;;;3.63;;
1837;SDS011;918;50.796;6.772;2023-12-20T03:54:12;11.47;;;4.30;;
1837;SDS011;918;50.796;6.772;2023-12-20T03:56:37;8.70;;;4.27;;
1837;SDS011;918;50.796;6.772;2023-12-20T03:59:02;8.03;;;4.13;;
1837;SDS011;918;50.796;6.772;2023-12-20T04:01:27;5.83;;;4.53;;
1837;SDS011;918;50.796;6.772;2023-12-20T04:03:53;8.73;;;4.97;;
1837;SDS011;918;50.796;6.772;2023-12-20T04:06:18;7.93;;;4.87;;
1837;SDS011;918;50.796;6.772;2023-12-20T04:08:43;9.73;;;4.50;;
1837;SDS011;918;50.796;6.772;2023-12-20T04:11:09;6.83;;;4.47;;
1837;SDS011;918;50.796;6.772;2023-12-20T04:13:34;5.20;;;4.23;;
1837;SDS011;918;50.796;6.772;2023-12-20T04:15:59;10.70;;;5.27;;
1837;SDS011;918;50.796;6.772;2023-12-20T04:18:25;6.50;;;4.70;;
1837;SDS011;918;50.796;6.772;2023-12-20T04:20:50;7.40;;;5.97;;
1837;SDS011;918;50.796;6.772;2023-12-20T04:23:16;8.53;;;5.20;;
1837;SDS011;918;50.796;6.772;2023-12-20T04:25:41;10.47;;;5.27;;
1837;SDS011;918;50.796;6.772;2023-12-20T04:28:07;9.20;;;5.10;;
1837;SDS011;918;50.796;6.772;2023-12-20T04:30:32;7.40;;;5.83;;
1837;SDS011;918;50.796;6.772;2023-12-20T04:32:57;6.43;;;4.77;;
1837;SDS011;918;50.796;6.772;2023-12-20T04:35:22;6.90;;;5.40;;
1837;SDS011;918;50.796;6.772;2023-12-20T04:37:48;7.13;;;5.53;;
1837;SDS011;918;50.796;6.772;2023-12-20T04:40:14;9.17;;;5.43;;
1837;SDS011;918;50.796;6.772;2023-12-20T04:42:39;10.77;;;6.27;;
1837;SDS011;918;50.796;6.772;2023-12-20T04:45:05;8.53;;;4.80;;
1837;SDS011;918;50.796;6.772;2023-12-20T04:47:30;7.87;;;5.00;;
1837;SDS011;918;50.796;6.772;2023-12-20T04:49:56;6.87;;;4.60;;
1837;SDS011;918;50.796;6.772;2023-12-20T04:52:21;11.97;;;5.50;;
1837;SDS011;918;50.796;6.772;2023-12-20T04:54:46;11.30;;;5.83;;
1837;SDS011;918;50.796;6.772;2023-12-20T04:57:11;10.03;;;5.43;;
1837;SDS011;918;50.796;6.772;2023-12-20T04:59:37;7.70;;;5.00;;
1837;SDS011;918;50.796;6.772;2023-12-20T05:02:02;8.70;;;4.60;;
1837;SDS011;918;50.796;6.772;2023-12-20T05:04:27;10.80;;;6.50;;
1837;SDS011;918;50.796;6.772;2023-12-20T05:06:53;9.10;;;6.17;;
1837;SDS011;918;50.796;6.772;2023-12-20T05:09:18;12.23;;;6.50;;
1837;SDS011;918;50.796;6.772;2023-12-20T05:11:43;11.20;;;5.63;;
1837;SDS011;918;50.796;6.772;2023-12-20T05:14:08;10.87;;;6.33;;
1837;SDS011;918;50.796;6.772;2023-12-20T05:16:34;10.97;;;6.33;;
1837;SDS011;918;50.796;6.772;2023-12-20T05:18:59;10.00;;;6.07;;
1837;SDS011;918;50.796;6.772;2023-12-20T05:21:26;11.90;;;6.70;;
1837;SDS011;918;50.796;6.772;2023-12-20T05:23:51;9.77;;;5.40;;
1837;SDS011;918;50.796;6.772;2023-12-20T05:26:16;13.67;;;5.60;;
1837;SDS011;918;50.796;6.772;2023-12-20T05:28:41;14.50;;;5.97;;
1837;SDS011;918;50.796;6.772;2023-12-20T05:31:06;7.83;;;5.30;;
1837;SDS011;918;50.796;6.772;2023-12-20T05:33:32;6.70;;;5.70;;
1837;SDS011;918;50.796;6.772;2023-12-20T05:35:57;8.97;;;5.73;;
1837;SDS011;918;50.796;6.772;2023-12-20T05:38:22;14.50;;;5.50;;
1837;SDS011;918;50.796;6.772;2023-12-20T05:40:48;7.80;;;5.77;;
1837;SDS011;918;50.796;6.772;2023-12-20T05:43:13;14.20;;;5.57;;
1837;SDS011;918;50.796;6.772;2023-12-20T05:45:39;7.37;;;5.50;;
1837;SDS011;918;50.796;6.772;2023-12-20T05:48:04;14.20;;;5.30;;
1837;SDS011;918;50.796;6.772;2023-12-20T05:50:29;11.30;;;5.17;;
1837;SDS011;918;50.796;6.772;2023-12-20T05:52:55;9.73;;;5.60;;
1837;SDS011;918;50.796;6.772;2023-12-20T05:55:20;6.93;;;4.97;;
1837;SDS011;918;50.796;6.772;2023-12-20T05:57:45;10.00;;;5.43;;
1837;SDS011;918;50.796;6.772;2023-12-20T06:00:12;8.97;;;5.40;;
1837;SDS011;918;50.796;6.772;2023-12-20T06:02:38;8.27;;;5.13;;
1837;SDS011;918;50.796;6.772;2023-12-20T06:05:06;8.47;;;4.80;;
1837;SDS011;918;50.796;6.772;2023-12-20T06:07:31;9.53;;;5.47;;
1837;SDS011;918;50.796;6.772;2023-12-20T06:09:57;9.87;;;4.60;;
1837;SDS011;918;50.796;6.772;2023-12-20T06:12:22;13.33;;;5.13;;
1837;SDS011;918;50.796;6.772;2023-12-20T06:14:47;14.20;;;5.07;;
1837;SDS011;918;50.796;6.772;2023-12-20T06:17:13;10.37;;;5.63;;
1837;SDS011;918;50.796;6.772;2023-12-20T06:19:38;8.60;;;5.20;;
1837;SDS011;918;50.796;6.772;2023-12-20T06:22:03;6.87;;;5.23;;
1837;SDS011;918;50.796;6.772;2023-12-20T06:24:28;8.53;;;5.20;;
1837;SDS011;918;50.796;6.772;2023-12-20T06:26:54;10.03;;;4.93;;
1837;SDS011;918;50.796;6.772;2023-12-20T06:29:20;11.70;;;5.37;;
1837;SDS011;918;50.796;6.772;2023-12-20T06:31:45;12.60;;;4.60;;
1837;SDS011;918;50.796;6.772;2023-12-20T06:34:10;9.77;;;4.73;;
1837;SDS011;918;50.796;6.772;2023-12-20T06:36:36;6.87;;;4.83;;
1837;SDS011;918;50.796;6.772;2023-12-20T06:39:01;10.63;;;5.30;;
1837;SDS011;918;50.796;6.772;2023-12-20T06:41:26;9.83;;;4.83;;
1837;SDS011;918;50.796;6.772;2023-12-20T06:43:52;9.07;;;6.07;;
1837;SDS011;918;50.796;6.772;2023-12-20T06:46:18;9.10;;;5.10;;
1837;SDS011;918;50.796;6.772;2023-12-20T06:48:43;14.00;;;5.17;;
1837;SDS011;918;50.796;6.772;2023-12-20T06:51:15;11.93;;;5.43;;
1837;SDS011;918;50.796;6.772;2023-12-20T06:53:41;9.03;;;5.27;;
1837;SDS011;918;50.796;6.772;2023-12-20T06:56:06;10.50;;;5.60;;
1837;SDS011;918;50.796;6.772;2023-12-20T06:58:32;8.60;;;4.73;;
1837;SDS011;918;50.796;6.772;2023-12-20T07:00:57;9.80;;;5.87;;
1837;SDS011;918;50.796;6.772;2023-12-20T07:03:23;11.93;;;6.10;;
1837;SDS011;918;50.796;6.772;2023-12-20T07:05:48;12.20;;;5.90;;
1837;SDS011;918;50.796;6.772;2023-12-20T07:08:13;6.77;;;4.73;;
1837;SDS011;918;50.796;6.772;2023-12-20T07:10:40;10.60;;;6.13;;
1837;SDS011;918;50.796;6.772;2023-12-20T07:13:06;12.03;;;6.50;;
1837;SDS011;918;50.796;6.772;2023-12-20T07:15:32;12.83;;;6.47;;
1837;SDS011;918;50.796;6.772;2023-12-20T07:17:58;10.80;;;6.60;;
1837;SDS011;918;50.796;6.772;2023-12-20T07:20:25;8.00;;;5.77;;
1837;SDS011;918;50.796;6.772;2023-12-20T07:22:50;21.03;;;7.10;;
1837;SDS011;918;50.796;6.772;2023-12-20T07:25:15;12.93;;;7.83;;
1837;SDS011;918;50.796;6.772;2023-12-20T07:27:41;12.53;;;6.70;;
1837;SDS011;918;50.796;6.772;2023-12-20T07:30:06;10.30;;;5.73;;
1837;SDS011;918;50.796;6.772;2023-12-20T07:32:32;12.00;;;5.97;;
1837;SDS011;918;50.796;6.772;2023-12-20T07:34:57;9.97;;;6.33;;
1837;SDS011;918;50.796;6.772;2023-12-20T07:37:22;10.93;;;5.43;;
1837;SDS011;918;50.796;6.772;2023-12-20T07:39:47;13.63;;;6.30;;
1837;SDS011;918;50.796;6.772;2023-12-20T07:42:13;8.10;;;4.27;;
1837;SDS011;918;50.796;6.772;2023-12-20T07:44:38;8.93;;;5.03;;
1837;SDS011;918;50.796;6.772;2023-12-20T07:47:03;8.83;;;4.70;;
1837;SDS011;918;50.796;6.772;2023-12-20T07:49:30;8.47;;;5.97;;
1837;SDS011;918;50.796;6.772;2023-12-20T07:51:55;9.57;;;4.67;;
1837;SDS011;918;50.796;6.772;2023-12-20T07:54:20;15.20;;;6.40;;
1837;SDS011;918;50.796;6.772;2023-12-20T07:56:46;10.67;;;4.60;;
1837;SDS011;918;50.796;6.772;2023-12-20T07:59:11;8.70;;;5.07;;
1837;SDS011;918;50.796;6.772;2023-12-20T08:01:37;9.70;;;5.33;;
1837;SDS011;918;50.796;6.772;2023-12-20T08:04:02;7.63;;;4.60;;
1837;SDS011;918;50.796;6.772;2023-12-20T08:06:27;7.80;;;4.60;;
1837;SDS011;918;50.796;6.772;2023-12-20T08:08:53;6.67;;;4.30;;
1837;SDS011;918;50.796;6.772;2023-12-20T08:11:18;8.83;;;4.60;;
1837;SDS011;918;50.796;6.772;2023-12-20T08:13:43;8.30;;;4.47;;
1837;SDS011;918;50.796;6.772;2023-12-20T08:16:08;8.90;;;4.93;;
1837;SDS011;918;50.796;6.772;2023-12-20T08:18:34;8.73;;;5.03;;
1837;SDS011;918;50.796;6.772;2023-12-20T08:20:59;5.87;;;4.80;;
1837;SDS011;918;50.796;6.772;2023-12-20T08:23:26;12.60;;;5.63;;
1837;SDS011;918;50.796;6.772;2023-12-20T08:25:51;10.03;;;4.43;;
1837;SDS011;918;50.796;6.772;2023-12-20T08:28:16;10.20;;;4.43;;
1837;SDS011;918;50.796;6.772;2023-12-20T08:30:42;6.77;;;4.30;;
1837;SDS011;918;50.796;6.772;2023-12-20T08:33:07;10.03;;;5.20;;
1837;SDS011;918;50.796;6.772;2023-12-20T08:35:36;8.90;;;4.63;;
1837;SDS011;918;50.796;6.772;2023-12-20T08:38:01;8.40;;;5.00;;
1837;SDS011;918;50.796;6.772;2023-12-20T08:40:26;7.80;;;4.87;;
1837;SDS011;918;50.796;6.772;2023-12-20T08:42:52;10.20;;;5.30;;
1837;SDS011;918;50.796;6.772;2023-12-20T08:45:17;10.93;;;4.40;;
1837;SDS011;918;50.796;6.772;2023-12-20T08:47:42;9.27;;;6.00;;
1837;SDS011;918;50.796;6.772;2023-12-20T08:50:10;11.63;;;4.80;;
1837;SDS011;918;50.796;6.772;2023-12-20T08:52:35;5.97;;;4.30;;
1837;SDS011;918;50.796;6.772;2023-12-20T08:55:01;13.27;;;4.90;;
1837;SDS011;918;50.796;6.772;2023-12-20T08:57:26;11.90;;;4.47;;
1837;SDS011;918;50.796;6.772;2023-12-20T08:59:51;5.97;;;3.17;;
1837;SDS011;918;50.796;6.772;2023-12-20T09:02:17;7.50;;;3.77;;
1837;SDS011;918;50.796;6.772;2023-12-20T09:04:42;3.70;;;3.37;;
1837;SDS011;918;50.796;6.772;2023-12-20T09:07:23;7.27;;;4.87;;
1837;SDS011;918;50.796;6.772;2023-12-20T09:09:52;8.30;;;4.20;;
1837;SDS011;918;50.796;6.772;2023-12-20T09:12:20;5.20;;;4.00;;
1837;SDS011;918;50.796;6.772;2023-12-20T09:14:46;5.97;;;3.63;;
1837;SDS011;918;50.796;6.772;2023-12-20T09:17:12;8.50;;;4.03;;
1837;SDS011;918;50.796;6.772;2023-12-20T09:19:38;7.93;;;3.40;;
1837;SDS011;918;50.796;6.772;2023-12-20T09:22:04;13.67;;;4.83;;
1837;SDS011;918;50.796;6.772;2023-12-20T09:24:29;12.47;;;4.03;;
1837;SDS011;918;50.796;6.772;2023-12-20T09:26:55;10.10;;;3.90;;
1837;SDS011;918;50.796;6.772;2023-12-20T09:29:20;9.03;;;3.80;;
1837;SDS011;918;50.796;6.772;2023-12-20T09:31:46;8.50;;;5.63;;
1837;SDS011;918;50.796;6.772;2023-12-20T09:34:11;9.43;;;4.33;;
1837;SDS011;918;50.796;6.772;2023-12-20T09:36:36;12.33;;;4.60;;
1837;SDS011;918;50.796;6.772;2023-12-20T09:39:05;10.57;;;3.93;;
1837;SDS011;918;50.796;6.772;2023-12-20T09:41:31;8.10;;;4.60;;
1837;SDS011;918;50.796;6.772;2023-12-20T09:44:02;6.47;;;3.57;;
1837;SDS011;918;50.796;6.772;2023-12-20T09:46:27;10.13;;;4.23;;
1837;SDS011;918;50.796;6.772;2023-12-20T09:48:54;8.40;;;3.80;;
1837;SDS011;918;50.796;6.772;2023-12-20T09:51:20;8.10;;;3.60;;
1837;SDS011;918;50.796;6.772;2023-12-20T09:53:45;6.40;;;4.17;;
1837;SDS011;918;50.796;6.772;2023-12-20T09:56:12;5.70;;;3.37;;
1837;SDS011;918;50.796;6.772;2023-12-20T09:58:37;5.70;;;3.93;;
1837;SDS011;918;50.796;6.772;2023-12-20T10:01:04;10.90;;;3.50;;
1837;SDS011;918;50.796;6.772;2023-12-20T10:03:30;6.97;;;4.87;;
1837;SDS011;918;50.796;6.772;2023-12-20T10:05:56;6.27;;;3.47;;
1837;SDS011;918;50.796;6.772;2023-12-20T10:08:22;9.43;;;3.73;;
1837;SDS011;918;50.796;6.772;2023-12-20T10:10:49;5.83;;;3.87;;
1837;SDS011;918;50.796;6.772;2023-12-20T10:13:14;8.70;;;4.40;;
1837;SDS011;918;50.796;6.772;2023-12-20T10:15:40;9.73;;;3.70;;
1837;SDS011;918;50.796;6.772;2023-12-20T10:18:05;10.53;;;4.90;;
1837;SDS011;918;50.796;6.772;2023-12-20T10:20:31;6.13;;;4.20;;
1837;SDS011;918;50.796;6.772;2023-12-20T10:22:57;5.37;;;3.60;;
1837;SDS011;918;50.796;6.772;2023-12-20T10:25:23;9.27;;;3.67;;
1837;SDS011;918;50.796;6.772;2023-12-20T10:27:49;8.33;;;4.00;;
1837;SDS011;918;50.796;6.772;2023-12-20T10:30:15;10.33;;;3.97;;
1837;SDS011;918;50.796;6.772;2023-12-20T10:32:41;6.00;;;4.17;;
1837;SDS011;918;50.796;6.772;2023-12-20T10:35:06;7.80;;;3.43;;
1837;SDS011;918;50.796;6.772;2023-12-20T10:37:35;5.47;;;4.10;;
1837;SDS011;918;50.796;6.772;2023-12-20T10:40:04;14.30;;;5.13;;
1837;SDS011;918;50.796;6.772;2023-12-20T10:42:31;5.17;;;4.10;;
1837;SDS011;918;50.796;6.772;2023-12-20T10:44:58;8.10;;;4.07;;
1837;SDS011;918;50.796;6.772;2023-12-20T10:47:24;9.03;;;5.13;;
1837;SDS011;918;50.796;6.772;2023-12-20T10:49:50;12.17;;;4.40;;
1837;SDS011;918;50.796;6.772;2023-12-20T10:52:17;6.27;;;4.10;;
1837;SDS011;918;50.796;6.772;2023-12-20T10:54:42;10.83;;;4.07;;
1837;SDS011;918;50.796;6.772;2023-12-20T10:57:07;8.40;;;4.20;;
1837;SDS011;918;50.796;6.772;2023-12-20T10:59:33;8.60;;;4.63;;
1837;SDS011;918;50.796;6.772;2023-12-20T11:02:00;8.57;;;4.47;;
1837;SDS011;918;50.796;6.772;2023-12-20T11:04:31;9.40;;;4.30;;
1837;SDS011;918;50.796;6.772;2023-12-20T11:07:29;5.83;;;4.37;;
1837;SDS011;918;50.796;6.772;2023-12-20T11:10:03;4.97;;;4.30;;
1837;SDS011;918;50.796;6.772;2023-12-20T11:15:42;5.70;;;4.43;;
1837;SDS011;918;50.796;6.772;2023-12-20T11:18:08;5.17;;;3.53;;
1837;SDS011;918;50.796;6.772;2023-12-20T11:20:37;8.77;;;4.10;;
1837;SDS011;918;50.796;6.772;2023-12-20T11:23:03;13.13;;;4.33;;
1837;SDS011;918;50.796;6.772;2023-12-20T11:25:29;7.53;;;3.90;;
1837;SDS011;918;50.796;6.772;2023-12-20T11:28:08;9.47;;;4.80;;
1837;SDS011;918;50.796;6.772;2023-12-20T11:31:08;8.13;;;4.20;;
1837;SDS011;918;50.796;6.772;2023-12-20T11:33:30;13.20;;;5.00;;
1837;SDS011;918;50.796;6.772;2023-12-20T11:36:00;10.33;;;4.90;;
1837;SDS011;918;50.796;6.772;2023-12-20T11:38:27;5.27;;;4.07;;
1837;SDS011;918;50.796;6.772;2023-12-20T11:40:53;9.90;;;5.10;;
1837;SDS011;918;50.796;6.772;2023-12-20T11:46:09;5.70;;;4.20;;
1837;SDS011;918;50.796;6.772;2023-12-20T11:48:36;6.93;;;4.40;;
1837;SDS011;918;50.796;6.772;2023-12-20T11:51:08;4.87;;;4.03;;
1837;SDS011;918;50.796;6.772;2023-12-20T11:53:34;10.37;;;4.20;;
1837;SDS011;918;50.796;6.772;2023-12-20T11:56:00;12.40;;;4.43;;
1837;SDS011;918;50.796;6.772;2023-12-20T11:58:25;7.20;;;4.30;;
1837;SDS011;918;50.796;6.772;2023-12-20T12:00:50;7.00;;;4.03;;
1837;SDS011;918;50.796;6.772;2023-12-20T12:03:16;7.30;;;4.30;;
1837;SDS011;918;50.796;6.772;2023-12-20T12:05:41;6.87;;;4.30;;
1837;SDS011;918;50.796;6.772;2023-12-20T12:08:07;8.20;;;4.20;;
1837;SDS011;918;50.796;6.772;2023-12-20T12:10:33;6.20;;;4.87;;
1837;SDS011;918;50.796;6.772;2023-12-20T12:12:58;7.60;;;5.23;;
1837;SDS011;918;50.796;6.772;2023-12-20T12:15:23;7.27;;;4.90;;
1837;SDS011;918;50.796;6.772;2023-12-20T12:17:55;6.13;;;4.13;;
1837;SDS011;918;50.796;6.772;2023-12-20T12:20:21;12.00;;;4.50;;
1837;SDS011;918;50.796;6.772;2023-12-20T12:22:46;9.70;;;5.40;;
1837;SDS011;918;50.796;6.772;2023-12-20T12:25:22;5.17;;;3.70;;
1837;SDS011;918;50.796;6.772;2023-12-20T12:27:48;9.00;;;4.47;;
1837;SDS011;918;50.796;6.772;2023-12-20T12:30:15;9.47;;;4.40;;
1837;SDS011;918;50.796;6.772;2023-12-20T12:32:43;6.23;;;4.00;;
1837;SDS011;918;50.796;6.772;2023-12-20T12:35:09;5.77;;;4.30;;
1837;SDS011;918;50.796;6.772;2023-12-20T12:37:35;9.83;;;4.77;;
1837;SDS011;918;50.796;6.772;2023-12-20T12:40:07;6.90;;;4.20;;
1837;SDS011;918;50.796;6.772;2023-12-20T12:42:35;9.97;;;5.23;;
1837;SDS011;918;50.796;6.772;2023-12-20T12:45:00;8.20;;;4.93;;
1837;SDS011;918;50.796;6.772;2023-12-20T12:47:25;7.50;;;4.30;;
1837;SDS011;918;50.796;6.772;2023-12-20T12:49:51;9.50;;;5.07;;
1837;SDS011;918;50.796;6.772;2023-12-20T12:52:17;8.90;;;5.20;;
1837;SDS011;918;50.796;6.772;2023-12-20T12:54:42;10.80;;;5.40;;
1837;SDS011;918;50.796;6.772;2023-12-20T12:57:08;7.07;;;4.97;;
1837;SDS011;918;50.796;6.772;2023-12-20T12:59:33;6.77;;;4.37;;
1837;SDS011;918;50.796;6.772;2023-12-20T13:01:58;7.93;;;3.93;;
1837;SDS011;918;50.796;6.772;2023-12-20T13:04:24;11.90;;;4.10;;
1837;SDS011;918;50.796;6.772;2023-12-20T13:06:49;8.00;;;4.00;;
1837;SDS011;918;50.796;6.772;2023-12-20T13:09:14;7.00;;;4.40;;
1837;SDS011;918;50.796;6.772;2023-12-20T13:11:40;9.70;;;4.50;;
1837;SDS011;918;50.796;6.772;2023-12-20T13:14:05;8.93;;;4.67;;
1837;SDS011;918;50.796;6.772;2023-12-20T13:16:31;7.07;;;4.40;;
1837;SDS011;918;50.796;6.772;2023-12-20T13:18:56;10.50;;;4.70;;
1837;SDS011;918;50.796;6.772;2023-12-20T13:21:21;10.77;;;5.80;;
1837;SDS011;918;50.796;6.772;2023-12-20T13:23:46;8.23;;;5.03;;
1837;SDS011;918;50.796;6.772;2023-12-20T13:26:12;7.03;;;4.70;;
1837;SDS011;918;50.796;6.772;2023-12-20T13:28:37;13.77;;;4.73;;
1837;SDS011;918;50.796;6.772;2023-12-20T13:31:02;11.33;;;4.53;;
1837;SDS011;918;50.796;6.772;2023-12-20T13:33:27;9.93;;;6.40;;
1837;SDS011;918;50.796;6.772;2023-12-20T13:35:53;5.60;;;4.60;;
1837;SDS011;918;50.796;6.772;2023-12-20T13:38:18;10.47;;;4.87;;
1837;SDS011;918;50.796;6.772;2023-12-20T13:40:43;7.70;;;4.40;;
1837;SDS011;918;50.796;6.772;2023-12-20T13:43:08;5.27;;;3.93;;
1837;SDS011;918;50.796;6.772;2023-12-20T13:45:36;8.43;;;4.60;;
1837;SDS011;918;50.796;6.772;2023-12-20T13:48:01;6.23;;;4.30;;
1837;SDS011;918;50.796;6.772;2023-12-20T13:50:26;8.73;;;4.77;;
1837;SDS011;918;50.796;6.772;2023-12-20T13:52:52;7.97;;;4.00;;
1837;SDS011;918;50.796;6.772;2023-12-20T13:58:38;5.03;;;3.90;;
1837;SDS011;918;50.796;6.772;2023-12-20T14:01:04;17.33;;;4.97;;
1837;SDS011;918;50.796;6.772;2023-12-20T14:03:30;5.43;;;3.20;;
1837;SDS011;918;50.796;6.772;2023-12-20T14:05:56;5.63;;;3.30;;
1837;SDS011;918;50.796;6.772;2023-12-20T14:08:21;3.90;;;3.40;;
1837;SDS011;918;50.796;6.772;2023-12-20T14:10:46;14.37;;;4.30;;
1837;SDS011;918;50.796;6.772;2023-12-20T14:13:11;3.90;;;3.47;;
1837;SDS011;918;50.796;6.772;2023-12-20T14:15:37;8.60;;;3.70;;
1837;SDS011;918;50.796;6.772;2023-12-20T14:18:05;8.90;;;2.90;;
1837;SDS011;918;50.796;6.772;2023-12-20T14:20:31;5.33;;;3.10;;
1837;SDS011;918;50.796;6.772;2023-12-20T14:22:59;2.90;;;2.70;;
1837;SDS011;918;50.796;6.772;2023-12-20T14:25:24;5.67;;;3.60;;
1837;SDS011;918;50.796;6.772;2023-12-20T14:27:50;5.83;;;3.50;;
1837;SDS011;918;50.796;6.772;2023-12-20T14:30:15;4.20;;;2.80;;
1837;SDS011;918;50.796;6.772;2023-12-20T14:32:42;4.43;;;2.70;;
1837;SDS011;918;50.796;6.772;2023-12-20T14:35:07;5.37;;;2.90;;
1837;SDS011;918;50.796;6.772;2023-12-20T14:37:33;4.27;;;3.70;;
1837;SDS011;918;50.796;6.772;2023-12-20T14:39:59;3.90;;;2.87;;
1837;SDS011;918;50.796;6.772;2023-12-20T14:42:24;3.10;;;2.80;;
1837;SDS011;918;50.796;6.772;2023-12-20T14:44:49;4.80;;;3.17;;
1837;SDS011;918;50.796;6.772;2023-12-20T14:47:17;5.40;;;3.03;;
1837;SDS011;918;50.796;6.772;2023-12-20T14:49:42;3.10;;;2.80;;
1837;SDS011;918;50.796;6.772;2023-12-20T14:52:08;5.73;;;3.50;;
1837;SDS011;918;50.796;6.772;2023-12-20T14:54:36;5.17;;;3.43;;
1837;SDS011;918;50.796;6.772;2023-12-20T14:57:01;4.33;;;3.93;;
1837;SDS011;918;50.796;6.772;2023-12-20T14:59:27;7.70;;;3.70;;
1837;SDS011;918;50.796;6.772;2023-12-20T15:01:52;4.83;;;3.50;;
1837;SDS011;918;50.796;6.772;2023-12-20T15:04:18;8.77;;;4.50;;
1837;SDS011;918;50.796;6.772;2023-12-20T15:06:43;6.57;;;4.10;;
1837;SDS011;918;50.796;6.772;2023-12-20T15:09:09;8.43;;;4.20;;
1837;SDS011;918;50.796;6.772;2023-12-20T15:11:35;5.43;;;4.07;;
1837;SDS011;918;50.796;6.772;2023-12-20T15:14:01;6.80;;;4.23;;
1837;SDS011;918;50.796;6.772;2023-12-20T15:16:26;8.63;;;4.90;;
1837;SDS011;918;50.796;6.772;2023-12-20T15:18:52;7.00;;;4.40;;
1837;SDS011;918;50.796;6.772;2023-12-20T15:21:18;5.80;;;3.90;;
1837;SDS011;918;50.796;6.772;2023-12-20T15:23:44;7.70;;;4.40;;
1837;SDS011;918;50.796;6.772;2023-12-20T15:26:18;9.93;;;4.50;;
1837;SDS011;918;50.796;6.772;2023-12-20T15:28:44;5.60;;;4.10;;